Tiempo atmosférico en la estación meteorológica de Barx, València/Valencia (340 m.)

Fecha
DESCASC
Temp. máxima en grados centígrados (hora)
DESCASC
Temp. mínima en grados centígrados (hora)
DESCASC
Temp. media en grados centígrados
DESCASC
Racha de viento máxima en m/sg (hora)
DESCASC
Velocidad máxima media en intervalos de 10 minutos(hora)
DESCASC
Precipitaciones diarias en mm
DESCASC
Precipitaciones de 00:00 a 06:00 en mm
DESCASC
Precipitaciones de 06:00 a 12:00 en mm
DESCASC
Precipitaciones de 12:00 a 18:00 en mm
DESCASC
Precipitaciones de 18:00 a 24:00 en mm
DESCASC
21-08-2017 30.2 (16:50) 18.9 (07:00) 24.6 9.72 (14:40) 5.83 (15:30) 0 0 0 0 0
20-08-2017 30.5 (15:00) 19.8 (05:30) 25.1 9.72 (17:30) 6.39 (17:30) 0 0 0 0 0
19-08-2017 29.6 (16:00) 22.5 (07:10) 26.1 7.78 (09:30) 4.17 (12:20) 0 0 0 0 0
18-08-2017 35.9 (18:00) 21.1 (08:00) 28.5 10 (17:30) 5.56 (16:00) 0 0 0 0 0
17-08-2017 31.1 (15:40) 19.2 (00:00) 25.2 8.61 (18:40) 5 (18:20) 0 0 0 0 0
16-08-2017 30.6 (16:50) 20.4 (00:00) 25.5 7.78 (14:40) 3.89 (17:10) 0 0 0 0 0
15-08-2017 30.3 (15:50) 19.2 (00:00) 24.8 7.78 (20:10) 4.72 (18:00) 0 0 0 0 0
14-08-2017 27.7 (13:00) 17.6 (06:10) 22.7 8.89 (16:40) 5.28 (17:00) 0 0 0 0 0
13-08-2017 28.5 (13:50) 17.3 (00:00) 22.9 11.67 (17:30) 6.39 (17:30) 0 0 0 0 0
12-08-2017 28.4 (14:50) 15.2 (00:00) 21.8 9.72 (18:00) 5.83 (17:30) 0 0 0 0 0
11-08-2017 26.5 (14:10) 14.6 (00:00) 20.6 12.22 (16:00) 6.39 (15:50) 0 0 0 0 0
10-08-2017 26 (16:20) 16.2 (00:00) 21.1 11.39 (05:10) 5.28 (19:30) 0 0 0 0 0
09-08-2017 27.1 (16:30) 19.3 (00:00) 23.2 13.06 (21:30) 5.56 (21:40) 6 0 0 0 6
08-08-2017 34.9 (14:10) 22.9 (00:00) 28.9 11.11 (18:30) 6.94 (18:40) 0 0 0 0 0
07-08-2017 34.9 (18:10) 20.3 (00:00) 27.6 11.67 (20:40) 5.56 (20:50) 0 0 0 0 0
06-08-2017 30 (17:00) 23 (00:00) 26.5 8.89 (01:40) 6.39 (01:40) 0 0 0 0 0
05-08-2017 34.1 (17:10) 20.9 (00:00) 27.5 8.89 (15:40) 5.56 (16:00) 0 0 0 0 0
04-08-2017 35.4 (15:20) 19.9 (00:00) 27.7 8.89 (18:00) 5 (17:50) 0 0 0 0 0
03-08-2017 36.4 (16:00) 20.9 (00:00) 28.7 8.33 (18:50) 4.72 (17:30) 0 0 0 0 0
02-08-2017 28.1 (00:20) 21.8 (00:00) 24.9 10 (06:30) 5.83 (01:40) 8.2 1.6 6.6 0 0
01-08-2017 29.9 (16:10) 20.9 (00:00) 25.4 10 (20:30) 5.83 (20:30) 0 0 0 0 0
31-07-2017 31.9 (17:00) 22.3 (00:00) 27.1 8.06 (14:10) 4.72 (14:50) 0 0 0 0 0
30-07-2017 35.1 (15:30) 19.9 (00:00) 27.5 8.61 (16:00) 5 (16:50) 0 0 0 0 0
29-07-2017 34.1 (17:20) 20.7 (00:00) 27.4 10 (16:50) 5.83 (16:20) 0 0 0 0 0
28-07-2017 32.4 (17:40) 20.1 (00:00) 26.3 8.89 (15:20) 4.72 (15:20) 0 0 0 0 0
27-07-2017 37.6 (17:20) 19.9 (00:00) 28.7 7.78 (20:10) 4.72 (20:10) 0 0 0 0 0
26-07-2017 30.3 (14:40) 18.6 (00:00) 24.4 10 (17:20) 6.11 (16:10) 0 0 0 0 0
25-07-2017 27.7 (13:10) 20.8 (00:00) 24.3 12.22 (14:30) 6.94 (16:20) 0 0 0 0 0
24-07-2017 30.8 (15:30) 21.1 (00:00) 25.9 10 (19:30) 6.11 (16:30) 0 0 0 0 0
23-07-2017 30 (17:10) 20.5 (00:00) 25.3 9.72 (20:40) 4.72 (20:30) 0 0 0 0 0

Gráficas

Temp. máximas Temp. mínimas Temp. medias Precipitaciones Rachas de viento máximas Velocidades máximas media en intervalos de 10 minutos

Datos horarios

Fecha y hora oficial Temperatura (ºC) Velocidad del viento (km/h) Dirección del viento Racha (km/h) Dirección de racha Precipitación (mm) Presión (hPa) Tendencia (hPa) Humedad (%)
2017-08-21 23:00:00 21.3 2 Sur 6 Sur 0 -- -- 71
2017-08-21 22:00:00 23.5 2 Sudoeste 15 Sudeste 0 -- -- 67
2017-08-21 21:00:00 25.4 12 Sur 21 Sudeste 0 -- -- 60
2017-08-21 20:00:00 27.2 13 Sudeste 28 Sur 0 -- -- 57
2017-08-21 19:00:00 28.9 14 Sur 29 Sudeste 0 -- -- 54
2017-08-21 18:00:00 29.4 16 Sudeste 34 Sur 0 -- -- 55
2017-08-21 17:00:00 30 17 Sur 33 Sur 0 -- -- 53
2017-08-21 16:00:00 30 19 Sur 35 Sur 0 -- -- 53
2017-08-21 15:00:00 30 19 Sur 35 Sudeste 0 -- -- 54
2017-08-21 14:00:00 29.9 18 Sudeste 31 Sudeste 0 -- -- 56
2017-08-21 13:00:00 29.1 18 Sudeste 30 Sur 0 -- -- 59
2017-08-21 12:00:00 28.7 11 Sudeste 22 Sudeste 0 -- -- 57
2017-08-21 11:00:00 26.7 8 Sudeste 18 Sur 0 -- -- 61
2017-08-21 10:00:00 24.7 7 Sudeste 15 Sudeste 0 -- -- 67
2017-08-21 09:00:00 20.7 8 Sudeste 12 Sudeste 0 -- -- 85
2017-08-21 08:00:00 19.1 2 Sur 8 Sur 0 -- -- 94
2017-08-21 07:00:00 18.9 4 Sur 5 Sur 0 -- -- 93
2017-08-21 06:00:00 19.5 0 Calma 8 Sudeste 0 -- -- 91
2017-08-21 05:00:00 19.7 3 Sudeste 6 Sudeste 0 -- -- 90
2017-08-21 04:00:00 20 0 Calma 7 Sur 0 -- -- 89
2017-08-21 03:00:00 20.3 3 Sur 6 Sudeste 0 -- -- 87
2017-08-21 02:00:00 21.3 0 Calma 4 Este 0 -- -- 87
2017-08-21 01:00:00 21.7 0 Calma 11 Oeste 0 -- -- 85
2017-08-21 00:00:00 21.9 5 Sur 6 Sur 0 -- -- 81
2017-08-20 23:00:00 23.1 0 Calma 16 Sur 0 -- -- 78
2017-08-20 22:00:00 24.1 15 Sudeste 27 Sur 0 -- -- 72
2017-08-20 21:00:00 24.9 18 Sur 27 Sur 0 -- -- 71
2017-08-20 20:00:00 26.9 15 Sudeste 28 Sudeste 0 -- -- 63
2017-08-20 19:00:00 27.5 18 Sur 34 Sur 0 -- -- 64
2017-08-20 18:00:00 28.5 22 Sur 35 Sur 0 -- -- 59
2017-08-20 17:00:00 29.8 21 Sur 34 Sur 0 -- -- 56
2017-08-20 16:00:00 30.4 18 Sur 32 Sur 0 -- -- 55
2017-08-20 15:00:00 30.5 18 Sur 31 Sur 0 -- -- 54
2017-08-20 14:00:00 30.2 15 Sur 31 Sudeste 0 -- -- 57
2017-08-20 13:00:00 29.9 13 Sudeste 25 Sudeste 0 -- -- 61
2017-08-20 12:00:00 26.3 11 Sur 21 Sur 0 -- -- 73
2017-08-20 11:00:00 25.1 10 Sudeste 19 Sudeste 0 -- -- 80
2017-08-20 10:00:00 23.7 7 Sudeste 15 Sudeste 0 -- -- 88
2017-08-20 09:00:00 22.8 7 Sudeste 15 Sudeste 0 -- -- 94
2017-08-20 08:00:00 21.7 0 Calma 0 Calma 0 -- -- 98
2017-08-20 07:00:00 21 0 Calma 4 Sudoeste 0 -- -- 98
2017-08-20 06:00:00 20.2 0 Calma 7 Sudeste 0 -- -- 97
2017-08-20 05:00:00 20.1 3 Sudeste 7 Sur 0 -- -- 96
2017-08-20 04:00:00 20.5 3 Sudeste 9 Sudeste 0 -- -- 96
2017-08-20 03:00:00 20.6 6 Sur 8 Sur 0 -- -- 96
2017-08-20 02:00:00 21.1 3 Sudeste 5 Sudeste 0 -- -- 92
2017-08-20 01:00:00 21.8 2 Sudeste 7 Sur 0 -- -- 92
2017-08-20 00:00:00 23.1 2 Norte 22 Sudeste 0 -- -- 88
2017-08-19 23:00:00 23.5 3 Sur 19 Sudeste 0 -- -- 90
2017-08-19 22:00:00 23.8 10 Sudeste 20 Sur 0 -- -- 88
2017-08-19 21:00:00 24.5 10 Sudeste 24 Sur 0 -- -- 83
2017-08-19 20:00:00 25.6 12 Sur 23 Sur 0 -- -- 74
2017-08-19 19:00:00 26.8 13 Sur 22 Sur 0 -- -- 66
2017-08-19 18:00:00 27 7 Este 20 Sudeste 0 -- -- 73
2017-08-19 17:00:00 28 9 Nordeste 22 Sudeste 0 -- -- 68
2017-08-19 16:00:00 29.6 5 Nordeste 19 Norte 0 -- -- 59
2017-08-19 15:00:00 27 5 Sudeste 21 Norte 0 -- -- 72
2017-08-19 14:00:00 26.5 11 Norte 21 Nordeste 0 -- -- 73
2017-08-19 13:00:00 25.9 10 Norte 23 Norte 0 -- -- 77
2017-08-19 12:00:00 26 12 Norte 20 Norte 0 -- -- 77
2017-08-19 11:00:00 24.8 8 Norte 21 Norte 0 -- -- 82
2017-08-19 10:00:00 24 12 Norte 28 Norte 0 -- -- 90
2017-08-19 09:00:00 23.4 8 Noroeste 15 Oeste 0 -- -- 95
2017-08-19 08:00:00 22.6 4 Norte 16 Norte 0 -- -- 91
2017-08-19 07:00:00 22.7 8 Noroeste 14 Oeste 0 -- -- 90
2017-08-19 06:00:00 23.1 4 Noroeste 13 Norte 0 -- -- 91
2017-08-19 05:00:00 23.2 6 Noroeste 12 Norte 0 -- -- 89
2017-08-19 04:00:00 23 6 Norte 11 Norte 0 -- -- 94
2017-08-19 03:00:00 23 4 Norte 11 Oeste 0 -- -- 95
2017-08-19 02:00:00 23.5 6 Noroeste 15 Noroeste 0 -- -- 92
2017-08-19 01:00:00 23.2 5 Noroeste 18 Noroeste 0 -- -- 94
2017-08-19 00:00:00 23.5 8 Noroeste 18 Noroeste 0 -- -- 94
2017-08-18 23:00:00 24.3 9 Noroeste 16 Oeste 0 -- -- 92
2017-08-18 22:00:00 25.8 9 Noroeste 20 Noroeste 0 -- -- 85
2017-08-18 21:00:00 28 8 Noroeste 15 Noroeste 0 -- -- 74
2017-08-18 20:00:00 33.1 9 Oeste 25 Sudeste 0 -- -- 56
2017-08-18 19:00:00 35.8 12 Sudeste 27 Sudeste 0 -- -- 42
2017-08-18 18:00:00 35.9 14 Sudeste 36 Sudeste 0 -- -- 43
2017-08-18 17:00:00 35.1 17 Sudeste 32 Sudeste 0 -- -- 46
2017-08-18 16:00:00 34.4 20 Sudeste 33 Sur 0 -- -- 49
2017-08-18 15:00:00 33.6 15 Sudeste 27 Sur 0 -- -- 54
2017-08-18 14:00:00 32.2 9 Sudeste 19 Sur 0 -- -- 57
2017-08-18 13:00:00 29.6 5 Nordeste 17 Norte 0 -- -- 68
2017-08-18 12:00:00 28.3 6 Norte 16 Norte 0 -- -- 71
2017-08-18 11:00:00 26.3 8 Norte 14 Nordeste 0 -- -- 78
2017-08-18 10:00:00 24.4 5 Nordeste 10 Nordeste 0 -- -- 85
2017-08-18 09:00:00 21.5 0 Calma 5 Sur 0 -- -- 94
2017-08-18 08:00:00 21.1 3 Sudeste 7 Sur 0 -- -- 93
2017-08-18 07:00:00 22 5 Sur 8 Sudeste 0 -- -- 91
2017-08-18 06:00:00 22.8 0 Calma 4 Noroeste 0 -- -- 94
2017-08-18 05:00:00 22.9 0 Calma 7 Sudoeste 0 -- -- 94
2017-08-18 04:00:00 22.8 2 Sur 6 Sur 0 -- -- 95
2017-08-18 03:00:00 22.2 0 Calma 3 Oeste 0 -- -- 97
2017-08-18 02:00:00 21.2 0 Calma 6 Sur 0 -- -- 94
2017-08-18 01:00:00 21.4 3 Sur 5 Sudoeste 0 -- -- 93
2017-08-18 00:00:00 22.1 2 Sudoeste 5 Sur 0 -- -- 91
2017-08-17 23:00:00 22.8 3 Oeste 5 Sudoeste 0 -- -- 91
2017-08-17 22:00:00 23.7 2 Noroeste 11 Norte 0 -- -- 90
2017-08-17 21:00:00 24.8 4 Norte 19 Sur 0 -- -- 87
2017-08-17 20:00:00 27.7 11 Sudeste 29 Sudeste 0 -- -- 70
2017-08-17 19:00:00 29 17 Sudeste 31 Sudeste 0 -- -- 63
2017-08-17 18:00:00 30.1 16 Sudeste 27 Sudeste 0 -- -- 54
2017-08-17 17:00:00 30.6 13 Sudeste 28 Sudeste 0 -- -- 60
2017-08-17 16:00:00 30.8 14 Sudeste 24 Sudeste 0 -- -- 58
2017-08-17 15:00:00 30.9 11 Sur 24 Sudeste 0 -- -- 60
2017-08-17 14:00:00 29.4 8 Nordeste 26 Norte 0 -- -- 66
2017-08-17 13:00:00 28.5 10 Norte 21 Norte 0 -- -- 70
2017-08-17 12:00:00 27.3 6 Nordeste 14 Norte 0 -- -- 70
2017-08-17 11:00:00 24.9 4 Nordeste 10 Norte 0 -- -- 78
2017-08-17 10:00:00 24.1 6 Norte 11 Norte 0 -- -- 85
2017-08-17 09:00:00 22.7 4 Noroeste 8 Noroeste 0 -- -- 96
2017-08-17 08:00:00 20.3 0 Calma 6 Sur 0 -- -- 98
2017-08-17 07:00:00 19.4 0 Calma 5 Sudeste 0 -- -- 97
2017-08-17 06:00:00 19.5 2 Sur 6 Sur 0 -- -- 97
2017-08-17 05:00:00 19.3 0 Calma 3 Sur 0 -- -- 95
2017-08-17 04:00:00 19.9 0 Calma 6 Sudeste 0 -- -- 94
2017-08-17 03:00:00 20.7 0 Calma 6 Sur 0 -- -- 94
2017-08-17 02:00:00 21 2 Sudeste 6 Sudeste 0 -- -- 92
2017-08-17 01:00:00 21.4 4 Sudeste 6 Sudeste 0 -- -- 91
2017-08-17 00:00:00 22.4 3 Sur 8 Noroeste 0 -- -- 91
2017-08-16 23:00:00 23.3 4 Norte 10 Este 0 -- -- 92
2017-08-16 22:00:00 24.2 4 Nordeste 16 Nordeste 0 -- -- 87
2017-08-16 21:00:00 25.5 0 Calma 19 Sur 0 -- -- 84
2017-08-16 20:00:00 27.1 11 Sur 22 Sudeste 0 -- -- 77
2017-08-16 19:00:00 28.3 13 Sur 24 Sudeste 0 -- -- 70
2017-08-16 18:00:00 29.9 13 Sudeste 22 Sur 0 -- -- 64
2017-08-16 17:00:00 30.6 12 Sur 23 Sur 0 -- -- 63
2017-08-16 16:00:00 28.9 6 Nordeste 19 Este 0 -- -- 68
2017-08-16 15:00:00 28.7 10 Este 28 Norte 0 -- -- 70
2017-08-16 14:00:00 28.4 9 Norte 21 Norte 0 -- -- 70
2017-08-16 13:00:00 28 7 Nordeste 19 Norte 0 -- -- 68
2017-08-16 12:00:00 26.2 7 Nordeste 15 Nordeste 0 -- -- 73
2017-08-16 11:00:00 24.4 5 Nordeste 10 Nordeste 0 -- -- 82
2017-08-16 10:00:00 23.3 3 Nordeste 5 Nordeste 0 -- -- 87
2017-08-16 09:00:00 21.5 0 Calma 3 Sur 0 -- -- 97
2017-08-16 08:00:00 20.4 0 Calma 6 Sudeste 0 -- -- 96
2017-08-16 07:00:00 20.4 3 Sur 6 Sudeste 0 -- -- 96
2017-08-16 06:00:00 20.7 3 Sudeste 5 Sudeste 0 -- -- 96
2017-08-16 05:00:00 20.9 3 Sur 6 Sur 0 -- -- 95
2017-08-16 04:00:00 20.8 3 Sur 5 Sudeste 0 -- -- 96
2017-08-16 03:00:00 20.7 0 Calma 5 Sur 0 -- -- 95
2017-08-16 02:00:00 21.1 2 Norte 6 Sur 0 -- -- 93
2017-08-16 01:00:00 22 3 Sur 6 Sur 0 -- -- 92
2017-08-16 00:00:00 22.9 0 Calma 10 Norte 0 -- -- 92
2017-08-15 23:00:00 23.4 6 Nordeste 17 Nordeste 0 -- -- 92
2017-08-15 22:00:00 23.4 10 Nordeste 19 Nordeste 0 -- -- 90
2017-08-15 21:00:00 23.8 3 Norte 28 Este 0 -- -- 87
2017-08-15 20:00:00 25.1 13 Sudeste 27 Sudeste 0 -- -- 80
2017-08-15 19:00:00 27.4 16 Sur 25 Sudeste 0 -- -- 71
2017-08-15 18:00:00 28.4 17 Sudeste 28 Sudeste 0 -- -- 68
2017-08-15 17:00:00 29.8 14 Sur 24 Sur 0 -- -- 64
2017-08-15 16:00:00 30.1 14 Sudeste 26 Norte 0 -- -- 60
2017-08-15 15:00:00 28.3 13 Norte 21 Norte 0 -- -- 67
2017-08-15 14:00:00 27.4 7 Nordeste 18 Norte 0 -- -- 69
2017-08-15 13:00:00 25.6 7 Nordeste 14 Norte 0 -- -- 72
2017-08-15 12:00:00 22.9 4 Norte 12 Nordeste 0 -- -- 86
2017-08-15 11:00:00 22.8 7 Nordeste 18 Nordeste 0 -- -- 85
2017-08-15 10:00:00 22.4 5 Norte 10 Noroeste 0 -- -- 88
2017-08-15 09:00:00 21.6 0 Calma 4 Sur 0 -- -- 92
2017-08-15 08:00:00 20.4 0 Calma 3 Nordeste 0 -- -- 97
2017-08-15 07:00:00 20.1 0 Calma 6 Oeste 0 -- -- 97
2017-08-15 06:00:00 20.4 2 Norte 6 Noroeste 0 -- -- 97
2017-08-15 05:00:00 19.5 0 Calma 3 Este 0 -- -- 97
2017-08-15 04:00:00 19.2 0 Calma 6 Sudeste 0 -- -- 95
2017-08-15 03:00:00 19.4 0 Calma 6 Sur 0 -- -- 95
2017-08-15 02:00:00 20 0 Calma 8 Sudeste 0 -- -- 94
2017-08-15 01:00:00 20.5 2 Sur 9 Nordeste 0 -- -- 92
2017-08-15 00:00:00 21.3 2 Nordeste 8 Noroeste 0 -- -- 92
2017-08-14 23:00:00 21.5 5 Este 12 Sudeste 0 -- -- 91
2017-08-14 22:00:00 21.6 2 Sur 14 Sudeste 0 -- -- 89
2017-08-14 21:00:00 22.8 4 Sur 21 Sudeste 0 -- -- 84
2017-08-14 20:00:00 24.2 12 Sur 23 Sur 0 -- -- 76
2017-08-14 19:00:00 26 12 Sur 29 Sur 0 -- -- 66
2017-08-14 18:00:00 26.8 12 Sur 27 Sur 0 -- -- 64
2017-08-14 17:00:00 27 19 Sur 32 Sur 0 -- -- 59
2017-08-14 16:00:00 26.2 13 Sudeste 30 Sur 0 -- -- 66
2017-08-14 15:00:00 23.5 15 Sudeste 26 Sudeste 0 -- -- 76
2017-08-14 14:00:00 25.2 13 Sur 26 Sudeste 0 -- -- 69
2017-08-14 13:00:00 27.7 10 Sur 18 Sur 0 -- -- 62
2017-08-14 12:00:00 25.4 6 Sur 19 Sur 0 -- -- 66
2017-08-14 11:00:00 23 7 Norte 13 Nordeste 0 -- -- 82
2017-08-14 10:00:00 21.7 6 Norte 8 Noroeste 0 -- -- 88
2017-08-14 09:00:00 20.1 0 Calma 4 Oeste 0 -- -- 93
2017-08-14 08:00:00 18.5 0 Calma 3 Noroeste 0 -- -- 97
2017-08-14 07:00:00 17.9 0 Calma 3 Sudoeste 0 -- -- 96
2017-08-14 06:00:00 17.8 0 Calma 4 Sudoeste 0 -- -- 92
2017-08-14 05:00:00 19 0 Calma 4 Este 0 -- -- 93
2017-08-14 04:00:00 18.5 0 Calma 3 Sur 0 -- -- 92
2017-08-14 03:00:00 19.3 0 Calma 11 Sudeste 0 -- -- 87
2017-08-14 02:00:00 21.2 6 Sudeste 28 Sudeste 0 -- -- 85
2017-08-14 01:00:00 21.4 11 Sudeste 30 Sudeste 0 -- -- 82
2017-08-14 00:00:00 21.6 15 Sudeste 31 Sudeste 0 -- -- 79
2017-08-13 23:00:00 21.8 16 Sudeste 31 Sudeste 0 -- -- 68
2017-08-13 22:00:00 21.8 15 Sur 28 Sudeste 0 -- -- 82
2017-08-13 21:00:00 22.8 17 Sudeste 36 Sudeste 0 -- -- 77
2017-08-13 20:00:00 24.7 18 Sudeste 35 Sudeste 0 -- -- 69
2017-08-13 19:00:00 25.9 22 Sur 37 Sudeste 0 -- -- 62
2017-08-13 18:00:00 27.2 21 Sur 42 Sur 0 -- -- 57
2017-08-13 17:00:00 27.9 21 Sur 34 Sur 0 -- -- 57
2017-08-13 16:00:00 28.1 20 Sur 36 Sur 0 -- -- 58
2017-08-13 15:00:00 28.4 14 Sur 28 Sudeste 0 -- -- 62
2017-08-13 14:00:00 28.5 14 Sur 27 Sudeste 0 -- -- 59
2017-08-13 13:00:00 28.3 10 Sur 23 Sur 0 -- -- 58
2017-08-13 12:00:00 27.4 8 Sur 15 Sur 0 -- -- 58
2017-08-13 11:00:00 25.3 7 Sudeste 15 Sudeste 0 -- -- 61
2017-08-13 10:00:00 22.3 9 Sudeste 19 Sudeste 0 -- -- 78
2017-08-13 09:00:00 18.6 2 Sur 8 Sur 0 -- -- 96
2017-08-13 08:00:00 17.6 4 Sur 8 Sur 0 -- -- 95
2017-08-13 07:00:00 17.6 4 Sur 9 Sur 0 -- -- 96
2017-08-13 06:00:00 17.6 4 Sudeste 6 Sudeste 0 -- -- 95
2017-08-13 05:00:00 18.1 3 Sur 8 Este 0 -- -- 93
2017-08-13 04:00:00 19.3 3 Norte 9 Nordeste 0 -- -- 93
2017-08-13 03:00:00 19.3 4 Este 8 Este 0 -- -- 94
2017-08-13 02:00:00 18.6 2 Norte 9 Noroeste 0 -- -- 92
2017-08-13 01:00:00 17.6 2 Norte 7 Oeste 0 -- -- 90
2017-08-13 00:00:00 18.1 2 Sudeste 6 Oeste 0 -- -- 77
2017-08-12 23:00:00 20.2 2 Norte 7 Sudeste 0 -- -- 78
2017-08-12 22:00:00 22 4 Norte 24 Sudeste 0 -- -- 75
2017-08-12 21:00:00 23.1 14 Sudeste 28 Sudeste 0 -- -- 72
2017-08-12 20:00:00 24.4 18 Sudeste 32 Sur 0 -- -- 69
2017-08-12 19:00:00 25.7 19 Sudeste 33 Sudeste 0 -- -- 61
2017-08-12 18:00:00 26.5 19 Sudeste 35 Sudeste 0 -- -- 53
2017-08-12 17:00:00 27.5 18 Sur 34 Sur 0 -- -- 50
2017-08-12 16:00:00 27.5 19 Sur 32 Sudeste 0 -- -- 50
2017-08-12 15:00:00 28.3 16 Sur 27 Sudeste 0 -- -- 47
2017-08-12 14:00:00 28 13 Sur 25 Sur 0 -- -- 47
2017-08-12 13:00:00 26.6 11 Sudeste 25 Sur 0 -- -- 58
2017-08-12 12:00:00 24.3 4 Nordeste 11 Nordeste 0 -- -- 67
2017-08-12 11:00:00 21.4 3 Norte 6 Norte 0 -- -- 77
2017-08-12 10:00:00 19.3 0 Calma 6 Noroeste 0 -- -- 90
2017-08-12 09:00:00 18.1 2 Norte 4 Norte 0 -- -- 96
2017-08-12 08:00:00 15.7 3 Sur 5 Sudeste 0 -- -- 98
2017-08-12 07:00:00 15.3 2 Sur 6 Sur 0 -- -- 94
2017-08-12 06:00:00 15.6 4 Sur 7 Sudeste 0 -- -- 94
2017-08-12 05:00:00 15.7 4 Sudeste 6 Sur 0 -- -- 94
2017-08-12 04:00:00 16.2 4 Sur 11 Sur 0 -- -- 91
2017-08-12 03:00:00 16.8 5 Sur 9 Sudeste 0 -- -- 88
2017-08-12 02:00:00 17.1 3 Sudeste 7 Sudoeste 0 -- -- 88
2017-08-12 01:00:00 18.5 4 Sur 10 Sur 0 -- -- 83
2017-08-12 00:00:00 19.7 6 Sur 23 Este 0 -- -- 79
2017-08-11 23:00:00 20.9 13 Sudeste 24 Sur 0 -- -- 76
2017-08-11 22:00:00 21.5 12 Sur 26 Sur 0 -- -- 77
2017-08-11 21:00:00 22.5 15 Sudeste 32 Sur 0 -- -- 72
2017-08-11 20:00:00 24 19 Sur 33 Sudeste 0 -- -- 68
2017-08-11 19:00:00 24.9 18 Sur 36 Sudeste 0 -- -- 63
2017-08-11 18:00:00 25.1 21 Sudeste 36 Sudeste 0 -- -- 59
2017-08-11 17:00:00 25.3 21 Sudeste 36 Sudeste 0 -- -- 54
2017-08-11 16:00:00 25.6 21 Sudeste 44 Sur 0 -- -- 52
2017-08-11 15:00:00 25.7 19 Sur 34 Sudeste 0 -- -- 53
2017-08-11 14:00:00 26.4 13 Sur 29 Sudeste 0 -- -- 55
2017-08-11 13:00:00 26.2 12 Sur 25 Sur 0 -- -- 55
2017-08-11 12:00:00 25.6 11 Sudeste 22 Sur 0 -- -- 57
2017-08-11 11:00:00 23.3 11 Sudeste 19 Sudeste 0 -- -- 63
2017-08-11 10:00:00 21.1 3 Nordeste 9 Este 0 -- -- 71
2017-08-11 09:00:00 15.7 0 Calma 3 Oeste 0 -- -- 97
2017-08-11 08:00:00 14.9 0 Calma 7 Sur 0 -- -- 94
2017-08-11 07:00:00 14.7 5 Sur 8 Sur 0 -- -- 93
2017-08-11 06:00:00 15 5 Sudeste 8 Sur 0 -- -- 91
2017-08-11 05:00:00 15.2 4 Sudeste 8 Sur 0 -- -- 87
2017-08-11 04:00:00 15.4 3 Sudeste 6 Sudeste 0 -- -- 86
2017-08-11 03:00:00 15.4 0 Calma 5 Nordeste 0 -- -- 87
2017-08-11 02:00:00 15.7 3 Sur 6 Sudeste 0 -- -- 83
2017-08-11 01:00:00 17.2 2 Norte 6 Nordeste 0 -- -- 78
2017-08-11 00:00:00 18.4 3 Oeste 14 Sur 0 -- -- 71
2017-08-10 23:00:00 20.6 9 Sudeste 20 Sudeste 0 -- -- 61
2017-08-10 22:00:00 20.6 14 Sudeste 29 Sudeste 0 -- -- 61
2017-08-10 21:00:00 21.1 18 Sudeste 31 Sur 0 -- -- 61
2017-08-10 20:00:00 22.8 19 Sudeste 32 Sudeste 0 -- -- 55
2017-08-10 19:00:00 24.1 18 Sur 30 Sur 0 -- -- 51
2017-08-10 18:00:00 25.2 15 Sudeste 29 Sur 0 -- -- 49
2017-08-10 17:00:00 25.6 17 Sudeste 30 Sudeste 0 -- -- 47
2017-08-10 16:00:00 25.8 15 Sur 25 Sudeste 0 -- -- 45
2017-08-10 15:00:00 24 8 Norte 17 Nordeste 0 -- -- 50
2017-08-10 14:00:00 23 6 Norte 14 Norte 0 -- -- 51
2017-08-10 13:00:00 21.2 6 Norte 13 Norte 0 -- -- 52
2017-08-10 12:00:00 19.4 4 Nordeste 11 Este 0 -- -- 59
2017-08-10 11:00:00 18.7 3 Nordeste 11 Norte 0 -- -- 68
2017-08-10 10:00:00 17.7 5 Norte 10 Norte 0 -- -- 72
2017-08-10 09:00:00 16.7 8 Norte 16 Norte 0 -- -- 83
2017-08-10 08:00:00 16.3 5 Norte 18 Norte 0 -- -- 87
2017-08-10 07:00:00 16.5 6 Norte 24 Norte 0 -- -- 81
2017-08-10 06:00:00 17.2 18 Norte 41 Norte 0 -- -- 77
2017-08-10 05:00:00 17.7 18 Norte 35 Norte 0 -- -- 77
2017-08-10 04:00:00 18.4 8 Oeste 30 Norte 0 -- -- 74
2017-08-10 03:00:00 18.7 14 Norte 29 Norte 0 -- -- 74
2017-08-10 02:00:00 18.7 8 Noroeste 33 Norte 0 -- -- 75
2017-08-10 01:00:00 18.7 13 Norte 40 Norte 0 -- -- 77
2017-08-10 00:00:00 19.3 10 Norte 32 Norte 0 -- -- 81
2017-08-09 23:00:00 19.7 15 Norte 40 Nordeste 0.8 -- -- 84
2017-08-09 22:00:00 19.8 15 Norte 47 Norte 0 -- -- 94
2017-08-09 21:00:00 22.3 5 Noroeste 18 Este 5.2 -- -- 93
2017-08-09 20:00:00 23.4 8 Sudeste 24 Sudeste 0 -- -- 82
2017-08-09 19:00:00 24.8 5 Nordeste 20 Sur 0 -- -- 80
2017-08-09 18:00:00 24.8 6 Sudeste 22 Sudeste 0 -- -- 79
2017-08-09 17:00:00 25.1 10 Nordeste 20 Sudeste 0 -- -- 79
2017-08-09 16:00:00 25.8 8 Este 27 Norte 0 -- -- 76
2017-08-09 15:00:00 25.5 13 Norte 26 Nordeste 0 -- -- 75
2017-08-09 14:00:00 26.2 12 Norte 22 Norte 0 -- -- 68
2017-08-09 13:00:00 24.4 8 Norte 22 Norte 0 -- -- 75
2017-08-09 12:00:00 23.4 11 Norte 21 Norte 0 -- -- 79
2017-08-09 11:00:00 23.4 10 Norte 19 Norte 0 -- -- 76
2017-08-09 10:00:00 23.3 14 Norte 22 Nordeste 0 -- -- 78
2017-08-09 09:00:00 22.8 12 Norte 20 Norte 0 -- -- 80
2017-08-09 08:00:00 22.4 6 Sudeste 15 Sudeste 0 -- -- 82
2017-08-09 07:00:00 22.2 5 Sudeste 13 Nordeste 0 -- -- 83
2017-08-09 06:00:00 22.1 4 Norte 14 Noroeste 0 -- -- 82
2017-08-09 05:00:00 22.2 4 Noroeste 13 Noroeste 0 -- -- 81
2017-08-09 04:00:00 22.4 5 Norte 14 Este 0 -- -- 81
2017-08-09 03:00:00 22.7 3 Noroeste 17 Sudeste 0 -- -- 81
2017-08-09 02:00:00 23.2 6 Sudeste 19 Este 0 -- -- 80
2017-08-09 01:00:00 23.6 7 Sudeste 19 Sudeste 0 -- -- 79
2017-08-09 00:00:00 24.1 10 Este 23 Este 0 -- -- 79
2017-08-08 23:00:00 24.2 6 Este 17 Este 0 -- -- 81
2017-08-08 22:00:00 24.2 5 Este 14 Este 0 -- -- 68
2017-08-08 21:00:00 25.3 6 Este 17 Este 0 -- -- 63
2017-08-08 20:00:00 27.3 7 Nordeste 37 Sur 0 -- -- 57
2017-08-08 19:00:00 27.6 22 Sur 40 Sur 0 -- -- 57
2017-08-08 18:00:00 29 24 Sur 39 Sur 0 -- -- 58
2017-08-08 17:00:00 30.5 22 Sur 36 Sudeste 0 -- -- 57
2017-08-08 16:00:00 31.7 19 Sur 38 Sudeste 0 -- -- 55
2017-08-08 15:00:00 32.8 21 Sur 33 Sur 0 -- -- 50
2017-08-08 14:00:00 34.5 15 Noroeste 28 Norte 0 -- -- 17
2017-08-08 13:00:00 32.2 13 Nordeste 29 Norte 0 -- -- 22
2017-08-08 12:00:00 32.6 11 Noroeste 22 Noroeste 0 -- -- 21
2017-08-08 11:00:00 30.7 11 Noroeste 22 Noroeste 0 -- -- 25
2017-08-08 10:00:00 28 4 Noroeste 14 Oeste 0 -- -- 34
2017-08-08 09:00:00 26.6 8 Noroeste 17 Oeste 0 -- -- 46
2017-08-08 08:00:00 23.7 2 Noroeste 8 Noroeste 0 -- -- 73
2017-08-08 07:00:00 23.7 3 Noroeste 6 Norte 0 -- -- 70
2017-08-08 06:00:00 24.4 3 Sur 6 Sudeste 0 -- -- 65
2017-08-08 05:00:00 25.5 4 Sur 11 Sur 0 -- -- 63
2017-08-08 04:00:00 23.6 4 Sudeste 10 Sur 0 -- -- 82
2017-08-08 03:00:00 23.3 6 Sudoeste 15 Noroeste 0 -- -- 92
2017-08-08 02:00:00 24.1 6 Norte 15 Noroeste 0 -- -- 88
2017-08-08 01:00:00 24.8 3 Norte 15 Norte 0 -- -- 74
2017-08-08 00:00:00 25.3 7 Sur 15 Norte 0 -- -- 68
2017-08-07 23:00:00 27.8 5 Oeste 22 Sur 0 -- -- 65
2017-08-07 22:00:00 28.8 10 Sur 15 Sur 0 -- -- 54
2017-08-07 21:00:00 28.9 9 Norte 42 Norte 0 -- -- 68
2017-08-07 20:00:00 31.6 4 Sur 10 Sur 0 -- -- 64
2017-08-07 19:00:00 30.3 5 Noroeste 25 Sudeste 0 -- -- 70
2017-08-07 18:00:00 34.7 14 Sudeste 28 Sudeste 0 -- -- 51
2017-08-07 17:00:00 34 17 Sudeste 30 Sudeste 0 -- -- 53
2017-08-07 16:00:00 33.2 18 Sudeste 33 Sur 0 -- -- 55
2017-08-07 15:00:00 32.7 17 Sudeste 30 Sur 0 -- -- 58
2017-08-07 14:00:00 30.3 6 Nordeste 19 Nordeste 0 -- -- 69
2017-08-07 13:00:00 29 10 Nordeste 17 Nordeste 0 -- -- 73
2017-08-07 12:00:00 27.7 9 Norte 14 Noroeste 0 -- -- 71
2017-08-07 11:00:00 26.7 5 Norte 11 Norte 0 -- -- 74
2017-08-07 10:00:00 25.2 5 Norte 8 Norte 0 -- -- 83
2017-08-07 09:00:00 22.5 2 Norte 8 Sur 0 -- -- 95
2017-08-07 08:00:00 21.1 6 Sur 10 Sur 0 -- -- 97
2017-08-07 07:00:00 20.3 3 Sur 6 Sur 0 -- -- 97
2017-08-07 06:00:00 20.5 2 Sur 4 Sudoeste 0 -- -- 94
2017-08-07 05:00:00 21.5 0 Calma 5 Sur 0 -- -- 91
2017-08-07 04:00:00 23.2 5 Sur 16 Sudeste 0 -- -- 89
2017-08-07 03:00:00 23.3 4 Sur 11 Sur 0 -- -- 89
2017-08-07 02:00:00 23.8 6 Sudeste 19 Sudeste 0 -- -- 88
2017-08-07 01:00:00 24.4 9 Sudeste 24 Sudeste 0 -- -- 86
2017-08-07 00:00:00 24.3 5 Noroeste 22 Sudeste 0 -- -- 87
2017-08-06 23:00:00 24.8 12 Sudeste 26 Sudoeste 0 -- -- 85
2017-08-06 22:00:00 25 11 Sudeste 28 Sudeste 0 -- -- 88
2017-08-06 21:00:00 25.8 6 Sudeste 26 Sur 0 -- -- 82
2017-08-06 20:00:00 27.5 14 Sur 25 Sur 0 -- -- 75
2017-08-06 19:00:00 27.6 10 Este 20 Este 0 -- -- 76
2017-08-06 18:00:00 28.8 5 Este 28 Sur 0 -- -- 70
2017-08-06 17:00:00 30 14 Sudeste 28 Sudeste 0 -- -- 62
2017-08-06 16:00:00 28.5 7 Este 21 Sudeste 0 -- -- 71
2017-08-06 15:00:00 27.5 8 Norte 23 Nordeste 0 -- -- 78
2017-08-06 14:00:00 26.3 12 Norte 27 Norte 0 -- -- 83
2017-08-06 13:00:00 27.1 19 Norte 29 Norte 0 -- -- 81
2017-08-06 12:00:00 28.5 12 Norte 27 Norte 0 -- -- 67
2017-08-06 11:00:00 28.3 10 Norte 22 Nordeste 0 -- -- 72
2017-08-06 10:00:00 25.6 5 Norte 12 Norte 0 -- -- 87
2017-08-06 09:00:00 24.3 0 Calma 8 Norte 0 -- -- 96
2017-08-06 08:00:00 23.4 0 Calma 4 Sudeste 0 -- -- 96
2017-08-06 07:00:00 23.4 0 Calma 6 Noroeste 0 -- -- 96
2017-08-06 06:00:00 23.6 0 Calma 5 Norte 0 -- -- 94
2017-08-06 05:00:00 24.3 5 Norte 8 Nordeste 0 -- -- 96
2017-08-06 04:00:00 24.5 0 Calma 9 Oeste 0 -- -- 94
2017-08-06 03:00:00 24.6 6 Norte 21 Nordeste 0 -- -- 94
2017-08-06 02:00:00 26.7 15 Nordeste 32 Sudeste 0 -- -- 85
2017-08-06 01:00:00 25.1 0 Calma 12 Noroeste 0 -- -- 93
2017-08-06 00:00:00 25.3 3 Noroeste 11 Norte 0 -- -- 90
2017-08-05 23:00:00 25.8 5 Norte 13 Norte 0 -- -- 91
2017-08-05 22:00:00 25.9 6 Norte 18 Noroeste 0 -- -- 90
2017-08-05 21:00:00 27.8 6 Noroeste 16 Oeste 0 -- -- 82
2017-08-05 20:00:00 30.5 10 Noroeste 18 Norte 0 -- -- 69
2017-08-05 19:00:00 31.3 13 Norte 20 Nordeste 0 -- -- 66
2017-08-05 18:00:00 32.3 6 Norte 24 Sudeste 0 -- -- 63
2017-08-05 17:00:00 33.6 17 Sudeste 31 Sur 0 -- -- 55
2017-08-05 16:00:00 33.2 20 Sudeste 32 Sur 0 -- -- 56
2017-08-05 15:00:00 33.6 16 Sudeste 28 Sudeste 0 -- -- 53
2017-08-05 14:00:00 32.6 7 Este 24 Sudeste 0 -- -- 56
2017-08-05 13:00:00 32.3 7 Nordeste 21 Nordeste 0 -- -- 54
2017-08-05 12:00:00 30.4 11 Norte 19 Norte 0 -- -- 63
2017-08-05 11:00:00 28.6 7 Nordeste 14 Norte 0 -- -- 67
2017-08-05 10:00:00 27 6 Norte 11 Norte 0 -- -- 65
2017-08-05 09:00:00 22 0 Calma 4 Sur 0 -- -- 83
2017-08-05 08:00:00 21.6 3 Sudeste 10 Sur 0 -- -- 81
2017-08-05 07:00:00 21.3 5 Sur 9 Sudeste 0 -- -- 80
2017-08-05 06:00:00 21.3 0 Calma 7 Sur 0 -- -- 80
2017-08-05 05:00:00 21.5 5 Sudeste 9 Sudeste 0 -- -- 78
2017-08-05 04:00:00 21.9 5 Sudeste 9 Sur 0 -- -- 75
2017-08-05 03:00:00 22 2 Sur 8 Sur 0 -- -- 75
2017-08-05 02:00:00 22 6 Sur 9 Sudeste 0 -- -- 76
2017-08-05 01:00:00 22.5 3 Sudeste 6 Sur 0 -- -- 77
2017-08-05 00:00:00 23.3 2 Sur 5 Sudoeste 0 -- -- 77
2017-08-04 23:00:00 24.8 0 Calma 6 Sur 0 -- -- 73
2017-08-04 22:00:00 26 0 Calma 6 Sudoeste 0 -- -- 69
2017-08-04 21:00:00 27.8 3 Noroeste 18 Sudeste 0 -- -- 67
2017-08-04 20:00:00 31.1 5 Noroeste 25 Sudeste 0 -- -- 57
2017-08-04 19:00:00 33.2 17 Sudeste 31 Sur 0 -- -- 47
2017-08-04 18:00:00 34 18 Sudeste 32 Sur 0 -- -- 46
2017-08-04 17:00:00 34.8 14 Sudeste 26 Sur 0 -- -- 45
2017-08-04 16:00:00 34.9 14 Sur 24 Sudeste 0 -- -- 46
2017-08-04 15:00:00 35.2 12 Sur 21 Sudeste 0 -- -- 45
2017-08-04 14:00:00 32.4 14 Norte 22 Norte 0 -- -- 54
2017-08-04 13:00:00 32.6 10 Nordeste 18 Norte 0 -- -- 53
2017-08-04 12:00:00 31.5 9 Norte 17 Norte 0 -- -- 49
2017-08-04 11:00:00 30.4 6 Norte 13 Norte 0 -- -- 53
2017-08-04 10:00:00 28.6 3 Nordeste 5 Nordeste 0 -- -- 55
2017-08-04 09:00:00 21.3 0 Calma 4 Sudeste 0 -- -- 91
2017-08-04 08:00:00 20.1 0 Calma 6 Sur 0 -- -- 90
2017-08-04 07:00:00 20.3 3 Sur 6 Sur 0 -- -- 83
2017-08-04 06:00:00 21.8 3 Sur 10 Sudeste 0 -- -- 79
2017-08-04 05:00:00 22.3 8 Sudeste 11 Sudeste 0 -- -- 74
2017-08-04 04:00:00 22.5 4 Sudeste 8 Sudeste 0 -- -- 76
2017-08-04 03:00:00 23 6 Sur 10 Sudeste 0 -- -- 71
2017-08-04 02:00:00 23.4 4 Sudeste 9 Sudeste 0 -- -- 72
2017-08-04 01:00:00 24.3 6 Sudeste 11 Sur 0 -- -- 68
2017-08-04 00:00:00 24.5 6 Sudeste 10 Sudeste 0 -- -- 71
2017-08-03 23:00:00 25 3 Sudeste 8 Sudoeste 0 -- -- 74
2017-08-03 22:00:00 26.2 3 Sur 8 Norte 0 -- -- 76
2017-08-03 21:00:00 27.9 5 Noroeste 14 Norte 0 -- -- 71
2017-08-03 20:00:00 30.2 5 Norte 22 Sur 0 -- -- 63
2017-08-03 19:00:00 33.6 15 Sudeste 30 Sur 0 -- -- 44
2017-08-03 18:00:00 34 5 Norte 27 Sur 0 -- -- 46
2017-08-03 17:00:00 35.1 14 Sudeste 27 Sudeste 0 -- -- 44
2017-08-03 16:00:00 36.4 11 Sur 23 Norte 0 -- -- 42
2017-08-03 15:00:00 35.4 9 Norte 17 Norte 0 -- -- 39
2017-08-03 14:00:00 34 10 Norte 16 Norte 0 -- -- 44
2017-08-03 13:00:00 32.8 8 Norte 15 Nordeste 0 -- -- 47
2017-08-03 12:00:00 31.3 4 Noroeste 14 Noroeste 0 -- -- 50
2017-08-03 11:00:00 29.5 8 Oeste 15 Oeste 0 -- -- 58
2017-08-03 10:00:00 27.1 7 Oeste 12 Oeste 0 -- -- 67
2017-08-03 09:00:00 23.7 3 Este 7 Noroeste 0 -- -- 83
2017-08-03 08:00:00 23.2 3 Norte 8 Nordeste 0 -- -- 87
2017-08-03 07:00:00 21.9 4 Norte 8 Nordeste 0 -- -- 90
2017-08-03 06:00:00 20.9 4 Sudeste 9 Sur 0 -- -- 92
2017-08-03 05:00:00 21.5 6 Sur 9 Sudeste 0 -- -- 90
2017-08-03 04:00:00 21.5 2 Sudeste 9 Sudeste 0 -- -- 92
2017-08-03 03:00:00 21.6 3 Sur 8 Sudeste 0 -- -- 90
2017-08-03 02:00:00 22.2 0 Calma 5 Sudeste 0 -- -- 93
2017-08-03 01:00:00 22.6 0 Calma 6 Sur 0 -- -- 91
2017-08-03 00:00:00 23.1 3 Sudeste 7 Sudeste 0 -- -- 90
2017-08-02 23:00:00 23.7 4 Sudeste 7 Sudeste 0 -- -- 88
2017-08-02 22:00:00 24.8 0 Calma 2 Sudeste 0 -- -- 91
2017-08-02 21:00:00 25.5 2 Noroeste 12 Norte 0 -- -- 90
2017-08-02 20:00:00 26.4 9 Norte 17 Norte 0 -- -- 88
2017-08-02 19:00:00 28.1 6 Norte 13 Norte 0 -- -- 80
2017-08-02 18:00:00 27.2 5 Nordeste 17 Norte 0 -- -- 84
2017-08-02 17:00:00 26.7 6 Norte 25 Noroeste 0 -- -- 83
2017-08-02 16:00:00 26.8 5 Nordeste 18 Este 0 -- -- 80
2017-08-02 15:00:00 25.9 8 Norte 19 Norte 0 -- -- 84
2017-08-02 14:00:00 26.1 0 Calma 23 Noroeste 0 -- -- 84
2017-08-02 13:00:00 24.9 8 Nordeste 26 Nordeste 0 -- -- 88
2017-08-02 12:00:00 24.6 7 Este 21 Norte 0.2 -- -- 91
2017-08-02 11:00:00 24.6 7 Nordeste 19 Este 0.2 -- -- 89
2017-08-02 10:00:00 23.5 5 Noroeste 21 Sur 0 -- -- 90
2017-08-02 09:00:00 22.4 6 Noroeste 11 Este 0 -- -- 94
2017-08-02 08:00:00 21.8 5 Sudeste 14 Sur 0 -- -- 93
2017-08-02 07:00:00 22.8 9 Norte 36 Noroeste 6.2 -- -- 94
2017-08-02 06:00:00 23.9 11 Este 31 Sur 1.4 -- -- 94
2017-08-02 05:00:00 23.6 6 Norte 15 Oeste 0 -- -- 95
2017-08-02 04:00:00 23.9 2 Este 21 Norte 0 -- -- 90
2017-08-02 03:00:00 24.5 5 Sur 23 Oeste 0 -- -- 89
2017-08-02 02:00:00 26.4 13 Oeste 36 Sudeste 0.2 -- -- 79
2017-08-02 01:00:00 26.9 11 Oeste 33 Sudeste 0 -- -- 73
2017-08-02 00:00:00 27 15 Sur 28 Sur 0 -- -- 57
2017-08-01 23:00:00 25.4 3 Sudeste 24 Oeste 0 -- -- 84
2017-08-01 22:00:00 28.3 10 Sur 36 Sur 0 -- -- 55
2017-08-01 21:00:00 27.5 18 Sudeste 36 Sudeste 0 -- -- 59
2017-08-01 20:00:00 26.9 9 Este 26 Sudeste 0 -- -- 72
2017-08-01 19:00:00 27.7 15 Sudeste 33 Sudeste 0 -- -- 66
2017-08-01 18:00:00 27.8 20 Sudeste 33 Sudeste 0 -- -- 75
2017-08-01 17:00:00 28.8 7 Norte 15 Norte 0 -- -- 72
2017-08-01 16:00:00 29.4 5 Norte 15 Norte 0 -- -- 66
2017-08-01 15:00:00 27.3 3 Sudeste 23 Este 0 -- -- 83
2017-08-01 14:00:00 27.4 5 Norte 24 Sudeste 0 -- -- 80
2017-08-01 13:00:00 27.8 7 Nordeste 21 Norte 0 -- -- 76
2017-08-01 12:00:00 28.3 8 Nordeste 16 Nordeste 0 -- -- 72
2017-08-01 11:00:00 27 9 Norte 16 Norte 0 -- -- 78
2017-08-01 10:00:00 24.4 8 Oeste 18 Oeste 0 -- -- 90
2017-08-01 09:00:00 23.6 8 Noroeste 15 Oeste 0 -- -- 93
2017-08-01 08:00:00 21.4 0 Calma 6 Sudoeste 0 -- -- 97
2017-08-01 07:00:00 21.2 2 Sudeste 11 Sur 0 -- -- 96
2017-08-01 06:00:00 21.8 2 Sudoeste 10 Sudeste 0 -- -- 94
2017-08-01 05:00:00 22.4 6 Sur 10 Sudeste 0 -- -- 93
2017-08-01 04:00:00 23 2 Sudeste 6 Sudoeste 0 -- -- 93
2017-08-01 03:00:00 23.5 3 Oeste 9 Norte 0 -- -- 94
2017-08-01 02:00:00 23.6 4 Este 10 Oeste 0 -- -- 94
2017-08-01 01:00:00 23.4 3 Noroeste 10 Oeste 0 -- -- 94
2017-08-01 00:00:00 23.7 0 Calma 5 Noroeste 0 -- -- 90
2017-07-31 23:00:00 24.3 4 Sudeste 12 Sudeste 0 -- -- 89
2017-07-31 22:00:00 24.9 3 Noroeste 17 Sudeste 0 -- -- 89
2017-07-31 21:00:00 26.1 6 Sudeste 22 Sudeste 0 -- -- 81
2017-07-31 20:00:00 28.3 12 Sudeste 23 Sudeste 0 -- -- 73
2017-07-31 19:00:00 30.1 10 Sur 23 Sudeste 0 -- -- 66
2017-07-31 18:00:00 31.1 7 Sur 20 Sur 0 -- -- 62
2017-07-31 17:00:00 31.9 12 Sur 29 Norte 0 -- -- 60
2017-07-31 16:00:00 29.6 15 Norte 27 Norte 0 -- -- 67
2017-07-31 15:00:00 28.7 14 Norte 29 Norte 0 -- -- 69
2017-07-31 14:00:00 27.7 16 Norte 27 Norte 0 -- -- 73
2017-07-31 13:00:00 27.2 12 Nordeste 26 Nordeste 0 -- -- 76
2017-07-31 12:00:00 26 13 Norte 19 Norte 0 -- -- 81
2017-07-31 11:00:00 25.4 7 Nordeste 13 Norte 0 -- -- 81
2017-07-31 10:00:00 25.1 5 Norte 9 Norte 0 -- -- 85
2017-07-31 09:00:00 23.8 4 Noroeste 6 Noroeste 0 -- -- 92
2017-07-31 08:00:00 22.6 0 Calma 2 Este 0 -- -- 95
2017-07-31 07:00:00 22.4 0 Calma 3 Noroeste 0 -- -- 96
2017-07-31 06:00:00 22.6 0 Calma 5 Noroeste 0 -- -- 93
2017-07-31 05:00:00 23.3 2 Norte 8 Noroeste 0 -- -- 95
2017-07-31 04:00:00 23.6 4 Oeste 7 Noroeste 0 -- -- 95
2017-07-31 03:00:00 23.9 4 Noroeste 10 Oeste 0 -- -- 94
2017-07-31 02:00:00 24.7 3 Noroeste 10 Norte 0 -- -- 92
2017-07-31 01:00:00 24.8 6 Nordeste 10 Norte 0 -- -- 92
2017-07-31 00:00:00 24.9 6 Nordeste 10 Norte 0 -- -- 92
2017-07-30 23:00:00 25.1 5 Norte 8 Norte 0 -- -- 91
2017-07-30 22:00:00 25.3 5 Noroeste 14 Oeste 0 -- -- 90
2017-07-30 21:00:00 27 5 Noroeste 17 Noroeste 0 -- -- 82
2017-07-30 20:00:00 29.5 5 Norte 19 Norte 0 -- -- 72
2017-07-30 19:00:00 30.5 14 Norte 24 Norte 0 -- -- 68
2017-07-30 18:00:00 34.3 6 Sudeste 24 Sudeste 0 -- -- 51
2017-07-30 17:00:00 33.8 9 Sudeste 30 Sudeste 0 -- -- 59
2017-07-30 16:00:00 34.7 17 Sudeste 31 Sur 0 -- -- 52
2017-07-30 15:00:00 34.3 10 Sudeste 21 Sudeste 0 -- -- 53
2017-07-30 14:00:00 31.5 13 Norte 19 Norte 0 -- -- 67
2017-07-30 13:00:00 30.5 13 Norte 21 Norte 0 -- -- 70
2017-07-30 12:00:00 29.9 8 Norte 17 Norte 0 -- -- 70
2017-07-30 11:00:00 28.7 12 Norte 18 Nordeste 0 -- -- 68
2017-07-30 10:00:00 28 4 Sudeste 6 Sudeste 0 -- -- 58
2017-07-30 09:00:00 21.4 0 Calma 8 Sur 0 -- -- 94
2017-07-30 08:00:00 20.2 5 Sur 14 Sur 0 -- -- 94
2017-07-30 07:00:00 20 6 Sur 10 Sur 0 -- -- 95
2017-07-30 06:00:00 20.7 3 Sur 15 Sur 0 -- -- 94
2017-07-30 05:00:00 21.3 10 Sur 15 Sur 0 -- -- 96
2017-07-30 04:00:00 21.2 0 Calma 6 Sudeste 0 -- -- 94
2017-07-30 03:00:00 21.8 0 Calma 4 Noroeste 0 -- -- 94
2017-07-30 02:00:00 22.9 0 Calma 10 Norte 0 -- -- 95
2017-07-30 01:00:00 23.3 3 Nordeste 8 Oeste 0 -- -- 96
2017-07-30 00:00:00 23.9 2 Norte 8 Noroeste 0 -- -- 95
2017-07-29 23:00:00 24.3 6 Noroeste 15 Noroeste 0 -- -- 94
2017-07-29 22:00:00 25.1 7 Noroeste 18 Oeste 0 -- -- 89
2017-07-29 21:00:00 27.4 6 Noroeste 20 Noroeste 0 -- -- 78
2017-07-29 20:00:00 31 8 Noroeste 19 Oeste 0 -- -- 64
2017-07-29 19:00:00 32.5 7 Norte 21 Sudeste 0 -- -- 58
2017-07-29 18:00:00 33.8 9 Sudeste 27 Sur 0 -- -- 54
2017-07-29 17:00:00 33.3 16 Sudeste 36 Sudeste 0 -- -- 54
2017-07-29 16:00:00 33.4 20 Sudeste 34 Sudeste 0 -- -- 56
2017-07-29 15:00:00 32.8 16 Sudeste 30 Sudeste 0 -- -- 57
2017-07-29 14:00:00 31.8 7 Sudeste 21 Sudeste 0 -- -- 61
2017-07-29 13:00:00 29.1 10 Norte 19 Norte 0 -- -- 71
2017-07-29 12:00:00 28.3 10 Nordeste 17 Norte 0 -- -- 74
2017-07-29 11:00:00 26.7 8 Nordeste 13 Norte 0 -- -- 79
2017-07-29 10:00:00 25 4 Nordeste 9 Nordeste 0 -- -- 85
2017-07-29 09:00:00 23 0 Calma 5 Sur 0 -- -- 95
2017-07-29 08:00:00 21.5 3 Sudeste 5 Sur 0 -- -- 98
2017-07-29 07:00:00 21 0 Calma 11 Sur 0 -- -- 95
2017-07-29 06:00:00 21.6 4 Sudeste 8 Sur 0 -- -- 94
2017-07-29 05:00:00 22.6 0 Calma 5 Noroeste 0 -- -- 93
2017-07-29 04:00:00 23.5 0 Calma 3 Norte 0 -- -- 96
2017-07-29 03:00:00 23.6 0 Calma 7 Noroeste 0 -- -- 94
2017-07-29 02:00:00 24 3 Noroeste 6 Oeste 0 -- -- 95
2017-07-29 01:00:00 24 3 Oeste 4 Sudoeste 0 -- -- 93
2017-07-29 00:00:00 24 0 Calma 6 Norte 0 -- -- 93
2017-07-28 23:00:00 24.1 4 Norte 8 Norte 0 -- -- 95
2017-07-28 22:00:00 24.5 5 Norte 12 Norte 0 -- -- 91
2017-07-28 21:00:00 25.4 7 Norte 17 Norte 0 -- -- 88
2017-07-28 20:00:00 27 12 Norte 19 Norte 0 -- -- 80
2017-07-28 19:00:00 31.6 7 Sudoeste 20 Sudeste 0 -- -- 54
2017-07-28 18:00:00 32.3 10 Sur 19 Sudeste 0 -- -- 53
2017-07-28 17:00:00 30.8 10 Norte 26 Norte 0 -- -- 58
2017-07-28 16:00:00 31.1 13 Nordeste 32 Norte 0 -- -- 56
2017-07-28 15:00:00 31.1 14 Norte 23 Noroeste 0 -- -- 64
2017-07-28 14:00:00 30.8 11 Norte 22 Norte 0 -- -- 64
2017-07-28 13:00:00 29.9 12 Norte 21 Norte 0 -- -- 66
2017-07-28 12:00:00 28.6 10 Norte 19 Norte 0 -- -- 70
2017-07-28 11:00:00 27.1 7 Nordeste 14 Norte 0 -- -- 75
2017-07-28 10:00:00 25.1 7 Nordeste 12 Norte 0 -- -- 84
2017-07-28 09:00:00 22.8 6 Norte 11 Norte 0 -- -- 95
2017-07-28 08:00:00 20.1 0 Calma 5 Sudeste 0 -- -- 87
2017-07-28 07:00:00 20.6 0 Calma 11 Sudeste 0 -- -- 84
2017-07-28 06:00:00 20.6 3 Sudoeste 6 Sudoeste 0 -- -- 81
2017-07-28 05:00:00 22.2 3 Sur 13 Sur 0 -- -- 77
2017-07-28 04:00:00 21.9 2 Sur 13 Sur 0 -- -- 77
2017-07-28 03:00:00 22.4 5 Sur 10 Sur 0 -- -- 79
2017-07-28 02:00:00 22.7 3 Sur 8 Sur 0 -- -- 82
2017-07-28 01:00:00 24 0 Calma 9 Este 0 -- -- 83
2017-07-28 00:00:00 25.1 2 Sudoeste 12 Norte 0 -- -- 80
2017-07-27 23:00:00 26 7 Norte 23 Noroeste 0 -- -- 82
2017-07-27 22:00:00 30.9 10 Oeste 22 Sur 0 -- -- 48
2017-07-27 21:00:00 33.5 12 Sur 28 Sudoeste 0 -- -- 34
2017-07-27 20:00:00 36.2 14 Sudoeste 23 Sudoeste 0 -- -- 30
2017-07-27 19:00:00 37.3 15 Sudeste 27 Sur 0 -- -- 33
2017-07-27 18:00:00 37.6 15 Sur 27 Sur 0 -- -- 33
2017-07-27 17:00:00 37.1 13 Sudeste 22 Sur 0 -- -- 35
2017-07-27 16:00:00 35.3 10 Nordeste 26 Este 0 -- -- 45
2017-07-27 15:00:00 34.2 8 Norte 22 Norte 0 -- -- 52
2017-07-27 14:00:00 33.2 10 Norte 21 Norte 0 -- -- 57
2017-07-27 13:00:00 31.7 12 Norte 21 Norte 0 -- -- 59
2017-07-27 12:00:00 31 9 Nordeste 17 Norte 0 -- -- 53
2017-07-27 11:00:00 29.2 6 Norte 13 Nordeste 0 -- -- 60
2017-07-27 10:00:00 26.5 3 Norte 8 Norte 0 -- -- 71
2017-07-27 09:00:00 21.3 0 Calma 6 Sur 0 -- -- 98
2017-07-27 08:00:00 20.3 4 Sur 10 Sur 0 -- -- 97
2017-07-27 07:00:00 19.9 2 Sur 6 Sudoeste 0 -- -- 96
2017-07-27 06:00:00 20.4 3 Sur 6 Sur 0 -- -- 95
2017-07-27 05:00:00 21.1 0 Calma 6 Oeste 0 -- -- 95
2017-07-27 04:00:00 21.7 0 Calma 5 Sudeste 0 -- -- 96
2017-07-27 03:00:00 22 2 Oeste 7 Oeste 0 -- -- 95
2017-07-27 02:00:00 22.3 2 Sur 11 Noroeste 0 -- -- 95
2017-07-27 01:00:00 22.4 0 Calma 12 Oeste 0 -- -- 95
2017-07-27 00:00:00 22.8 3 Norte 10 Oeste 0 -- -- 93
2017-07-26 23:00:00 23.4 2 Nordeste 5 Sudeste 0 -- -- 87
2017-07-26 22:00:00 24.3 0 Calma 10 Norte 0 -- -- 86
2017-07-26 21:00:00 26.4 4 Nordeste 23 Sudeste 0 -- -- 75
2017-07-26 20:00:00 28.5 14 Sudeste 24 Sur 0 -- -- 62
2017-07-26 19:00:00 28.9 14 Sudeste 30 Sudeste 0 -- -- 64
2017-07-26 18:00:00 29.1 18 Sur 36 Sudeste 0 -- -- 62
2017-07-26 17:00:00 29.3 19 Sudeste 34 Sudeste 0 -- -- 59
2017-07-26 16:00:00 29.8 21 Sur 34 Sudeste 0 -- -- 55
2017-07-26 15:00:00 30.2 17 Sudeste 30 Sudeste 0 -- -- 53
2017-07-26 14:00:00 29.9 15 Sudeste 28 Sudeste 0 -- -- 53
2017-07-26 13:00:00 29.2 12 Sudeste 23 Sur 0 -- -- 55
2017-07-26 12:00:00 26.3 4 Sur 15 Norte 0 -- -- 64
2017-07-26 11:00:00 24.8 6 Nordeste 12 Nordeste 0 -- -- 67
2017-07-26 10:00:00 23.7 5 Nordeste 11 Noroeste 0 -- -- 73
2017-07-26 09:00:00 20.5 2 Norte 5 Sudeste 0 -- -- 89
2017-07-26 08:00:00 19 2 Sudeste 9 Sur 0 -- -- 90
2017-07-26 07:00:00 18.8 5 Sudeste 10 Sudeste 0 -- -- 89
2017-07-26 06:00:00 18.8 2 Sur 8 Sudeste 0 -- -- 88
2017-07-26 05:00:00 19 4 Sudeste 7 Sur 0 -- -- 87
2017-07-26 04:00:00 19.9 4 Sudeste 5 Sudeste 0 -- -- 84
2017-07-26 03:00:00 21 0 Calma 8 Noroeste 0 -- -- 81
2017-07-26 02:00:00 21.2 3 Sur 6 Sur 0 -- -- 77
2017-07-26 01:00:00 22.3 0 Calma 4 Sur 0 -- -- 82
2017-07-26 00:00:00 22.3 2 Sudoeste 13 Sur 0 -- -- 81
2017-07-25 23:00:00 22.4 6 Sudeste 20 Sudeste 0 -- -- 80
2017-07-25 22:00:00 22.5 10 Sudeste 25 Sur 0 -- -- 80
2017-07-25 21:00:00 23.3 11 Sudeste 28 Sur 0 -- -- 72
2017-07-25 20:00:00 25 10 Sur 35 Sur 0 -- -- 64
2017-07-25 19:00:00 26.1 16 Sur 35 Sudeste 0 -- -- 58
2017-07-25 18:00:00 26.7 21 Sudeste 41 Sudeste 0 -- -- 53
2017-07-25 17:00:00 27.3 23 Sur 39 Sudeste 0 -- -- 53
2017-07-25 16:00:00 27.4 22 Sudeste 39 Sudeste 0 -- -- 51
2017-07-25 15:00:00 27.2 22 Sur 44 Sudeste 0 -- -- 51
2017-07-25 14:00:00 27.3 23 Sudeste 38 Sur 0 -- -- 51
2017-07-25 13:00:00 27.6 17 Sur 29 Sudeste 0 -- -- 52
2017-07-25 12:00:00 27 12 Sur 28 Sur 0 -- -- 54
2017-07-25 11:00:00 25.8 12 Sur 23 Sur 0 -- -- 58
2017-07-25 10:00:00 24.8 5 Sudeste 15 Sudeste 0 -- -- 64
2017-07-25 09:00:00 23.7 6 Este 14 Este 0 -- -- 69
2017-07-25 08:00:00 22.8 4 Nordeste 18 Nordeste 0 -- -- 75
2017-07-25 07:00:00 22.7 9 Este 17 Este 0 -- -- 73
2017-07-25 06:00:00 22.9 7 Este 18 Nordeste 0 -- -- 79
2017-07-25 05:00:00 23 4 Norte 11 Norte 0 -- -- 95
2017-07-25 04:00:00 21.3 0 Calma 8 Sudeste 0 -- -- 91
2017-07-25 03:00:00 20.8 2 Sur 5 Sudoeste 0 -- -- 90
2017-07-25 02:00:00 21.8 2 Sudeste 6 Norte 0 -- -- 84
2017-07-25 01:00:00 22.7 3 Norte 6 Oeste 0 -- -- 84
2017-07-25 00:00:00 23.5 0 Calma 6 Noroeste 0 -- -- 77
2017-07-24 23:00:00 25.5 5 Sur 12 Sudeste 0 -- -- 70
2017-07-24 22:00:00 25.1 12 Sudeste 31 Sudeste 0 -- -- 80
2017-07-24 21:00:00 25.1 19 Sudeste 34 Sudeste 0 -- -- 83
2017-07-24 20:00:00 26.4 21 Sur 36 Sur 0 -- -- 77
2017-07-24 19:00:00 28 21 Sur 34 Sudeste 0 -- -- 64
2017-07-24 18:00:00 29 21 Sur 34 Sur 0 -- -- 59
2017-07-24 17:00:00 29.7 18 Sur 36 Sudeste 0 -- -- 53
2017-07-24 16:00:00 30.4 21 Sur 33 Sur 0 -- -- 50
2017-07-24 15:00:00 30.3 18 Sudeste 30 Sudeste 0 -- -- 51
2017-07-24 14:00:00 30.1 13 Sudeste 30 Sur 0 -- -- 57
2017-07-24 13:00:00 29.3 8 Sur 20 Sur 0 -- -- 64
2017-07-24 12:00:00 26.1 9 Nordeste 18 Sudeste 0 -- -- 78
2017-07-24 11:00:00 25.8 4 Nordeste 12 Norte 0 -- -- 78
2017-07-24 10:00:00 24.8 4 Noroeste 8 Norte 0 -- -- 83
2017-07-24 09:00:00 23.4 2 Oeste 4 Oeste 0 -- -- 93
2017-07-24 08:00:00 22 0 Calma 7 Sudoeste 0 -- -- 97
2017-07-24 07:00:00 21.5 4 Sur 6 Sur 0 -- -- 95
2017-07-24 06:00:00 21.5 2 Sudeste 7 Sur 0 -- -- 96
2017-07-24 05:00:00 21.6 4 Sur 8 Sur 0 -- -- 96
2017-07-24 04:00:00 21.5 0 Calma 5 Sudeste 0 -- -- 96
2017-07-24 03:00:00 21.2 2 Sudeste 4 Sudeste 0 -- -- 94
2017-07-24 02:00:00 22.1 0 Calma 3 Este 0 -- -- 96
2017-07-24 01:00:00 21.8 0 Calma 4 Oeste 0 -- -- 92
2017-07-24 00:00:00 22.6 0 Calma 6 Nordeste 0 -- -- 87
2017-07-23 23:00:00 23.9 5 Este 15 Sudeste 0 -- -- 86
2017-07-23 22:00:00 24.2 13 Sur 22 Sudeste 0 -- -- 83
2017-07-23 21:00:00 25.1 7 Sudeste 35 Sudeste 0 -- -- 82
2017-07-23 20:00:00 26.7 14 Sur 30 Sudeste 0 -- -- 76
2017-07-23 19:00:00 27.5 14 Este 30 Este 0 -- -- 72
2017-07-23 18:00:00 29.8 14 Sur 27 Sudeste 0 -- -- 65
2017-07-23 17:00:00 29.6 10 Sudeste 20 Este 0 -- -- 65
2017-07-23 16:00:00 28.4 7 Nordeste 26 Norte 0 -- -- 67
2017-07-23 15:00:00 27.2 8 Nordeste 25 Norte 0 -- -- 70
2017-07-23 14:00:00 26.7 12 Norte 21 Norte 0 -- -- 72
2017-07-23 13:00:00 26.7 9 Nordeste 20 Sudeste 0 -- -- 74
2017-07-23 12:00:00 25.8 10 Norte 16 Norte 0 -- -- 78
2017-07-23 11:00:00 25 4 Norte 14 Norte 0 -- -- 80
2017-07-23 10:00:00 23.8 5 Norte 20 Norte 0 -- -- 88
2017-07-23 09:00:00 23.1 8 Norte 14 Norte 0 -- -- 90
2017-07-23 08:00:00 22.1 6 Norte 11 Nordeste 0 -- -- 93
2017-07-23 07:00:00 20.6 2 Sur 8 Sudoeste 0 -- -- 93
2017-07-23 06:00:00 20.9 0 Calma 5 Sudoeste 0 -- -- 93
2017-07-23 05:00:00 21.5 4 Noroeste 6 Noroeste 0 -- -- 95
2017-07-23 04:00:00 21.5 5 Norte 9 Norte 0 -- -- 96
2017-07-23 03:00:00 21.8 2 Noroeste 6 Noroeste 0 -- -- 95
2017-07-23 02:00:00 22.1 4 Norte 8 Norte 0 -- -- 95
2017-07-23 01:00:00 22.7 5 Norte 10 Nordeste 0 -- -- 95
2017-07-23 00:00:00 23 4 Nordeste 9 Norte 0 -- -- 92